Time;durP1;ratioP1;P1;durP2;ratioP2;P2;SDS_P1;SDS_P2;PMS_P1;PMS_P2;Temp;Humidity;BMP_temperature;BMP_pressure;BME280_temperature;BME280_humidity;BME280_pressure;Samples;Min_cycle;Max_cycle;Signal;HPM_P1;HPM_P2
2022/07/14 05:00:51;;;;;;;2.60;1.43;;;22.20;97.20;;;;;;1713934;28;20189;-72
2022/07/14 05:01:42;;;;;;;1.92;1.52;;;22.20;97.20;;;;;;1713763;28;20209;-72
2022/07/14 05:02:34;;;;;;;3.00;1.30;;;22.20;97.20;;;;;;1713780;28;20297;-72
2022/07/14 05:03:25;;;;;;;1.50;1.40;;;22.20;97.20;;;;;;1713816;28;20206;-72
2022/07/14 05:04:17;;;;;;;1.90;1.80;;;22.20;97.20;;;;;;1713735;28;20222;-72
2022/07/14 05:05:08;;;;;;;2.00;1.50;;;22.30;97.20;;;;;;1713860;28;20444;-72
2022/07/14 05:06:00;;;;;;;1.60;1.50;;;22.30;97.20;;;;;;1715125;28;20564;-72
2022/07/14 05:06:51;;;;;;;2.08;1.80;;;22.30;97.20;;;;;;1714826;28;20688;-72
2022/07/14 05:07:42;;;;;;;1.30;1.20;;;22.30;97.20;;;;;;1715108;28;20632;-72
2022/07/14 05:08:33;;;;;;;1.35;1.25;;;22.30;97.20;;;;;;1715082;28;20206;-72
2022/07/14 05:09:26;;;;;;;1.50;1.40;;;22.40;97.20;;;;;;1715110;28;20205;-72
2022/07/14 05:10:17;;;;;;;2.75;1.50;;;22.40;97.20;;;;;;1715091;28;20198;-72
2022/07/14 05:11:09;;;;;;;3.50;1.67;;;22.40;97.20;;;;;;1715099;28;20288;-72
2022/07/14 05:12:00;;;;;;;1.85;1.52;;;22.40;97.20;;;;;;1715094;28;20553;-73
2022/07/14 05:12:52;;;;;;;1.85;1.75;;;22.40;97.20;;;;;;1714732;28;20205;-72
2022/07/14 05:13:43;;;;;;;1.73;1.40;;;22.40;97.20;;;;;;1715141;28;20669;-72
2022/07/14 05:14:34;;;;;;;1.77;1.60;;;22.50;97.20;;;;;;1714866;28;20639;-72
2022/07/14 05:15:25;;;;;;;2.08;1.45;;;22.50;97.20;;;;;;1714872;28;20213;-72
2022/07/14 05:16:18;;;;;;;2.13;1.90;;;22.50;97.20;;;;;;1714994;28;20212;-72
2022/07/14 05:17:09;;;;;;;2.13;1.70;;;22.50;97.20;;;;;;1714759;28;20210;-72
2022/07/14 05:18:01;;;;;;;2.83;2.03;;;22.60;97.20;;;;;;1714877;28;20325;-72
2022/07/14 05:18:51;;;;;;;2.08;1.67;;;22.60;97.20;;;;;;1714986;28;20582;-72
2022/07/14 05:19:46;;;;;;;2.93;1.67;;;22.60;97.20;;;;;;1715114;28;20569;-72
2022/07/14 05:20:37;;;;;;;2.30;1.65;;;22.60;97.20;;;;;;1714979;28;20586;-72
2022/07/14 05:21:30;;;;;;;3.97;1.97;;;22.60;97.20;;;;;;1714997;28;20575;-72
2022/07/14 05:22:21;;;;;;;2.10;1.90;;;22.60;97.20;;;;;;1714973;28;20209;-72
2022/07/14 05:23:12;;;;;;;4.47;2.00;;;22.70;97.20;;;;;;1714978;28;20213;-72
2022/07/14 05:24:04;;;;;;;1.85;1.70;;;22.70;97.20;;;;;;1714956;28;20209;-73
2022/07/14 05:24:55;;;;;;;2.47;1.90;;;22.70;97.20;;;;;;1714867;28;20205;-72
2022/07/14 05:25:46;;;;;;;3.38;1.85;;;22.70;97.20;;;;;;1715077;28;20217;-72
2022/07/14 05:26:38;;;;;;;1.80;1.70;;;22.70;97.20;;;;;;1714457;28;20276;-72
2022/07/14 05:27:30;;;;;;;3.92;1.90;;;22.70;97.20;;;;;;1714948;28;20214;-72
2022/07/14 05:28:22;;;;;;;2.35;1.80;;;22.70;97.20;;;;;;1714876;28;20209;-72
2022/07/14 05:29:12;;;;;;;3.15;1.60;;;22.70;97.20;;;;;;1714924;28;20209;-72
2022/07/14 05:30:04;;;;;;;5.87;2.60;;;22.80;97.20;;;;;;1714883;28;20196;-72
2022/07/14 05:30:57;;;;;;;1.90;1.63;;;22.80;97.20;;;;;;1714910;28;20201;-72
2022/07/14 05:31:51;;;;;;;5.00;1.88;;;22.80;97.20;;;;;;1714890;28;20209;-72
2022/07/14 05:32:41;;;;;;;4.57;1.70;;;22.80;97.20;;;;;;1714982;28;20213;-72
2022/07/14 05:33:33;;;;;;;2.23;2.00;;;22.80;97.20;;;;;;1714892;28;20289;-72
2022/07/14 05:34:24;;;;;;;1.70;1.60;;;22.80;97.20;;;;;;1714971;28;20225;-72
2022/07/14 05:35:16;;;;;;;1.73;1.63;;;22.80;97.20;;;;;;1714882;28;20277;-72
2022/07/14 05:36:07;;;;;;;1.65;1.55;;;22.80;97.20;;;;;;1714859;28;20197;-72
2022/07/14 05:36:59;;;;;;;3.50;1.20;;;22.80;97.20;;;;;;1714622;28;20265;-72
2022/07/14 05:37:50;;;;;;;2.05;1.48;;;22.80;97.20;;;;;;1714639;28;20300;-72
2022/07/14 05:38:42;;;;;;;3.43;1.30;;;22.80;97.20;;;;;;1714951;28;20217;-72
2022/07/14 05:39:32;;;;;;;1.40;1.30;;;22.80;97.20;;;;;;1714876;28;20218;-72
2022/07/14 05:40:24;;;;;;;1.47;1.23;;;22.90;97.20;;;;;;1714917;28;20241;-72
2022/07/14 05:41:15;;;;;;;1.50;1.40;;;22.90;97.20;;;;;;1714825;28;20213;-72
2022/07/14 05:42:07;;;;;;;1.70;1.40;;;22.90;97.20;;;;;;1714661;28;20248;-72
2022/07/14 05:43:01;;;;;;;1.70;1.58;;;22.90;97.20;;;;;;1714771;28;20653;-72
2022/07/14 05:43:55;;;;;;;3.85;1.58;;;22.90;97.20;;;;;;1714904;28;20217;-72
2022/07/14 05:44:47;;;;;;;1.85;1.23;;;22.90;97.20;;;;;;1714996;28;20221;-72
2022/07/14 05:45:39;;;;;;;3.97;1.40;;;22.90;97.20;;;;;;1714815;28;20205;-72
2022/07/14 05:46:29;;;;;;;2.75;1.50;;;22.90;97.20;;;;;;1714921;28;20213;-72
2022/07/14 05:47:23;;;;;;;1.47;1.37;;;22.90;97.20;;;;;;1714613;28;20292;-72
2022/07/14 05:48:13;;;;;;;4.25;1.40;;;23.00;97.20;;;;;;1714728;28;20661;-72
2022/07/14 05:49:05;;;;;;;1.87;1.60;;;23.00;97.20;;;;;;1714933;28;20628;-72
2022/07/14 05:49:56;;;;;;;2.38;1.40;;;23.00;97.20;;;;;;1714829;28;20206;-72
2022/07/14 05:50:47;;;;;;;2.10;1.50;;;23.00;97.20;;;;;;1714861;28;20210;-72
2022/07/14 05:51:38;;;;;;;2.20;1.50;;;23.10;97.20;;;;;;1714811;28;20205;-72
2022/07/14 05:52:30;;;;;;;1.40;1.30;;;23.10;97.20;;;;;;1714773;28;20201;-72
2022/07/14 05:53:21;;;;;;;3.05;1.50;;;23.10;97.20;;;;;;1714841;28;20445;-72
2022/07/14 05:54:13;;;;;;;1.70;1.50;;;23.10;97.20;;;;;;1714632;28;20226;-72
2022/07/14 05:55:05;;;;;;;1.80;1.40;;;23.10;97.20;;;;;;1714860;28;20209;-72
2022/07/14 05:55:57;;;;;;;12.65;1.75;;;23.10;97.20;;;;;;1714748;28;20201;-72
2022/07/14 05:56:49;;;;;;;2.67;1.40;;;23.20;97.20;;;;;;1714536;28;20677;-72
2022/07/14 05:57:39;;;;;;;5.80;1.80;;;23.20;97.20;;;;;;1714734;28;20293;-72
2022/07/14 05:58:31;;;;;;;1.40;1.30;;;23.20;97.20;;;;;;1714447;28;20691;-72
2022/07/14 05:59:22;;;;;;;3.58;1.80;;;23.20;97.20;;;;;;1714653;28;20198;-72
2022/07/14 06:00:15;;;;;;;2.53;1.40;;;23.20;97.20;;;;;;1714794;28;20237;-72
2022/07/14 06:01:07;;;;;;;1.75;1.52;;;23.20;97.20;;;;;;1714800;28;20206;-72
2022/07/14 06:01:59;;;;;;;1.73;1.33;;;23.20;97.20;;;;;;1714807;28;20276;-73
2022/07/14 06:02:51;;;;;;;1.60;1.30;;;23.30;97.20;;;;;;1714731;28;20217;-72
2022/07/14 06:03:43;;;;;;;3.05;1.52;;;23.30;97.20;;;;;;1714808;28;20256;-72
2022/07/14 06:04:34;;;;;;;1.55;1.45;;;23.30;97.20;;;;;;1714692;28;20597;-72
2022/07/14 06:05:25;;;;;;;1.47;1.37;;;23.30;97.20;;;;;;1714857;28;20285;-72
2022/07/14 06:06:16;;;;;;;1.45;1.35;;;23.30;97.20;;;;;;1714388;28;20198;-72
2022/07/14 06:07:09;;;;;;;2.40;1.50;;;23.40;97.20;;;;;;1714535;28;20202;-72
2022/07/14 06:07:59;;;;;;;1.75;1.42;;;23.40;97.20;;;;;;1714669;28;20212;-72
2022/07/14 06:08:51;;;;;;;1.60;1.50;;;23.40;97.20;;;;;;1714750;28;20296;-72
2022/07/14 06:09:42;;;;;;;1.50;1.40;;;23.40;97.20;;;;;;1714798;28;20210;-72
2022/07/14 06:10:34;;;;;;;1.87;1.30;;;23.40;97.20;;;;;;1714671;28;20240;-72
2022/07/14 06:11:24;;;;;;;1.90;1.50;;;23.50;97.20;;;;;;1714802;28;20212;-72
2022/07/14 06:12:16;;;;;;;2.90;1.80;;;23.50;97.20;;;;;;1714669;28;20281;-72
2022/07/14 06:13:07;;;;;;;1.95;1.50;;;23.50;97.20;;;;;;1714731;28;20713;-72
2022/07/14 06:14:01;;;;;;;3.75;1.50;;;23.50;97.20;;;;;;1714189;28;20592;-72
2022/07/14 06:14:52;;;;;;;1.90;1.42;;;23.50;97.20;;;;;;1714545;28;20237;-72
2022/07/14 06:15:44;;;;;;;1.27;1.17;;;23.60;97.20;;;;;;1714786;28;20209;-72
2022/07/14 06:16:35;;;;;;;3.25;1.40;;;23.60;97.20;;;;;;1714294;28;20206;-72
2022/07/14 06:17:27;;;;;;;4.38;1.60;;;23.60;97.20;;;;;;1714151;28;20213;-73
2022/07/14 06:18:19;;;;;;;1.50;1.40;;;23.60;97.20;;;;;;1714635;28;20232;-72
2022/07/14 06:19:11;;;;;;;2.13;1.60;;;23.70;97.20;;;;;;1714662;28;20206;-72
2022/07/14 06:20:07;;;;;;;1.45;1.35;;;23.70;97.20;;;;;;1714661;28;20661;-72
2022/07/14 06:20:59;;;;;;;2.25;1.30;;;23.70;97.20;;;;;;1714701;28;20209;-72
2022/07/14 06:21:49;;;;;;;3.58;1.10;;;23.80;97.20;;;;;;1714633;28;20586;-72
2022/07/14 06:22:41;;;;;;;1.63;1.40;;;23.80;97.20;;;;;;1714658;28;20229;-72
2022/07/14 06:23:32;;;;;;;1.75;1.40;;;23.80;97.20;;;;;;1714550;28;20206;-72
2022/07/14 06:24:24;;;;;;;1.38;1.27;;;23.80;97.20;;;;;;1714415;28;20217;-72
2022/07/14 06:25:15;;;;;;;1.55;1.45;;;23.90;97.20;;;;;;1714244;28;20205;-72
2022/07/14 06:26:11;;;;;;;2.83;1.52;;;23.90;97.20;;;;;;1714280;28;20229;-72
2022/07/14 06:27:02;;;;;;;3.67;1.50;;;23.90;97.20;;;;;;1714201;28;20206;-73
2022/07/14 06:27:54;;;;;;;4.83;1.40;;;23.90;97.20;;;;;;1714454;28;20194;-72
2022/07/14 06:28:46;;;;;;;2.00;1.52;;;23.90;97.20;;;;;;1714614;28;20462;-72
2022/07/14 06:29:38;;;;;;;2.60;1.25;;;24.00;97.20;;;;;;1714673;28;20620;-72
2022/07/14 06:30:28;;;;;;;1.58;1.48;;;24.00;97.20;;;;;;1714288;28;20695;-72
2022/07/14 06:31:20;;;;;;;2.50;1.97;;;24.00;97.20;;;;;;1714707;28;20553;-72
2022/07/14 06:32:11;;;;;;;2.20;1.17;;;24.00;97.20;;;;;;1714239;28;20198;-72
2022/07/14 06:33:03;;;;;;;2.50;1.23;;;24.10;97.20;;;;;;1714565;28;20288;-72
2022/07/14 06:33:55;;;;;;;7.72;1.65;;;24.10;97.20;;;;;;1714405;28;20214;-72
2022/07/14 06:34:47;;;;;;;2.95;1.45;;;24.10;97.20;;;;;;1714564;28;20209;-72
2022/07/14 06:35:39;;;;;;;1.25;1.15;;;24.10;97.20;;;;;;1714541;28;20210;-72
2022/07/14 06:36:31;;;;;;;2.20;1.25;;;24.20;97.20;;;;;;1714484;28;20246;-72
2022/07/14 06:37:22;;;;;;;3.08;1.42;;;24.20;97.20;;;;;;1713847;28;20204;-72
2022/07/14 06:38:13;;;;;;;1.65;1.55;;;24.20;97.20;;;;;;1714045;28;20205;-72
2022/07/14 06:39:05;;;;;;;1.70;1.60;;;24.20;97.20;;;;;;1714139;28;20232;-73
2022/07/14 06:39:56;;;;;;;2.20;2.00;;;24.30;97.20;;;;;;1712670;28;20205;-73
2022/07/14 06:40:48;;;;;;;1.40;1.30;;;24.30;97.20;;;;;;1706518;28;20215;-72
2022/07/14 06:41:38;;;;;;;1.88;1.42;;;24.30;97.20;;;;;;1710099;28;20276;-72
2022/07/14 06:42:30;;;;;;;1.60;1.50;;;24.40;97.20;;;;;;1714108;28;20198;-72
2022/07/14 06:43:22;;;;;;;1.52;1.42;;;24.40;97.20;;;;;;1709496;28;20290;-72
2022/07/14 06:44:14;;;;;;;2.10;1.30;;;24.40;97.20;;;;;;1714125;28;20592;-72
2022/07/14 06:45:06;;;;;;;1.30;1.20;;;24.40;97.20;;;;;;1714333;28;20951;-72
2022/07/14 06:45:57;;;;;;;5.50;2.37;;;24.40;97.20;;;;;;1713617;28;20441;-72
2022/07/14 06:46:48;;;;;;;1.67;1.50;;;24.50;97.20;;;;;;1713666;28;20833;-72
2022/07/14 06:47:40;;;;;;;1.43;1.33;;;24.50;97.20;;;;;;1714139;28;20667;-72
2022/07/14 06:48:31;;;;;;;1.50;1.37;;;24.50;97.20;;;;;;1708274;28;20685;-72
2022/07/14 06:49:25;;;;;;;2.53;1.60;;;24.50;97.20;;;;;;1707569;28;20941;-72
2022/07/14 06:50:16;;;;;;;1.97;1.43;;;24.50;97.20;;;;;;1707527;28;20206;-72
2022/07/14 06:51:08;;;;;;;1.40;1.30;;;24.50;97.20;;;;;;1707729;28;20964;-72
2022/07/14 06:51:58;;;;;;;1.75;1.65;;;24.60;97.20;;;;;;1713343;28;20202;-72
2022/07/14 06:52:50;;;;;;;1.90;1.60;;;24.60;97.20;;;;;;1714232;28;20293;-72
2022/07/14 06:53:41;;;;;;;2.80;1.50;;;24.60;97.20;;;;;;1714280;28;20543;-72
2022/07/14 06:54:33;;;;;;;1.93;1.83;;;24.60;97.20;;;;;;1714180;28;20516;-72
2022/07/14 06:55:25;;;;;;;3.13;1.85;;;24.70;97.20;;;;;;1712641;28;20216;-72
2022/07/14 06:56:16;;;;;;;2.50;1.70;;;24.70;97.20;;;;;;1712840;28;20208;-72
2022/07/14 06:57:08;;;;;;;2.13;1.47;;;24.70;97.20;;;;;;1713315;28;20202;-72
2022/07/14 06:57:59;;;;;;;2.13;2.03;;;24.80;97.20;;;;;;1713916;28;20817;-72
2022/07/14 06:58:51;;;;;;;4.20;1.50;;;24.80;97.20;;;;;;1711572;28;20507;-72
2022/07/14 06:59:42;;;;;;;1.55;1.33;;;24.80;97.20;;;;;;1712950;28;20206;-72
2022/07/14 07:00:34;;;;;;;1.73;1.60;;;24.90;97.20;;;;;;1713018;28;20202;-73
2022/07/14 07:01:25;;;;;;;3.60;1.30;;;24.90;97.20;;;;;;1713897;28;20454;-73
2022/07/14 07:02:18;;;;;;;1.60;1.50;;;24.90;97.20;;;;;;1713119;28;20238;-72
2022/07/14 07:03:11;;;;;;;1.50;1.40;;;24.90;97.20;;;;;;1713465;28;20230;-72
2022/07/14 07:04:02;;;;;;;1.90;1.65;;;24.90;97.20;;;;;;1714072;28;20205;-72
2022/07/14 07:07:14;;;;;;;2.20;1.58;;;25.00;97.20;;;;;;1713782;28;20200;-72
2022/07/14 07:08:04;;;;;;;3.40;1.60;;;25.00;97.20;;;;;;1714071;28;20573;-72
2022/07/14 07:08:57;;;;;;;1.70;1.30;;;25.10;97.20;;;;;;1714008;28;20512;-72
2022/07/14 07:09:47;;;;;;;1.98;1.48;;;25.10;97.20;;;;;;1714174;28;20456;-71
2022/07/14 07:10:41;;;;;;;2.43;1.60;;;25.10;97.20;;;;;;1714137;28;20296;-72
2022/07/14 07:11:34;;;;;;;2.95;1.50;;;25.10;97.20;;;;;;1714082;28;20206;-72
2022/07/14 07:12:28;;;;;;;1.60;1.50;;;25.20;97.20;;;;;;1713831;28;20284;-72
2022/07/14 07:13:19;;;;;;;6.40;1.50;;;25.20;97.20;;;;;;1707403;28;20202;-71
2022/07/14 07:14:10;;;;;;;2.47;1.70;;;25.20;97.20;;;;;;1707265;28;20207;-71
2022/07/14 07:15:01;;;;;;;1.33;1.20;;;25.20;97.20;;;;;;1707456;28;20580;-71
2022/07/14 07:15:54;;;;;;;2.67;1.67;;;25.20;97.20;;;;;;1707411;28;20667;-71
2022/07/14 07:16:45;;;;;;;2.40;1.60;;;25.30;97.20;;;;;;1707162;28;20217;-71
2022/07/14 07:17:37;;;;;;;1.50;1.40;;;25.30;97.20;;;;;;1713022;28;20222;-71
2022/07/14 07:18:28;;;;;;;1.98;1.55;;;25.30;97.20;;;;;;1713982;28;20209;-71
2022/07/14 07:19:20;;;;;;;2.17;1.70;;;25.40;97.20;;;;;;1713662;28;20284;-71
2022/07/14 07:20:12;;;;;;;2.35;1.80;;;25.40;97.20;;;;;;1714066;28;20205;-71
2022/07/14 07:21:06;;;;;;;2.20;1.87;;;25.40;97.20;;;;;;1714066;28;20202;-71
2022/07/14 07:21:57;;;;;;;2.15;1.95;;;25.40;97.20;;;;;;1713959;28;20449;-70
2022/07/14 07:22:48;;;;;;;2.25;1.70;;;25.40;97.20;;;;;;1714125;28;20261;-71
2022/07/14 07:23:44;;;;;;;1.50;1.40;;;25.50;97.20;;;;;;1713942;28;20704;-71
2022/07/14 07:24:36;;;;;;;1.77;1.67;;;25.50;97.20;;;;;;1711990;28;20304;-71
2022/07/14 07:25:27;;;;;;;3.28;2.00;;;25.50;97.20;;;;;;1713300;28;20229;-71
2022/07/14 07:26:21;;;;;;;1.90;1.70;;;25.50;97.20;;;;;;1713256;28;20752;-70
2022/07/14 07:27:11;;;;;;;2.28;1.70;;;25.60;97.20;;;;;;1712839;28;20464;-71
2022/07/14 07:28:04;;;;;;;2.40;1.60;;;25.60;97.20;;;;;;1713322;28;20194;-70
2022/07/14 07:28:54;;;;;;;1.63;1.40;;;25.60;97.20;;;;;;1712027;28;20195;-71
2022/07/14 07:29:47;;;;;;;1.87;1.60;;;25.60;97.20;;;;;;1712123;28;20281;-71
2022/07/14 07:30:37;;;;;;;2.70;1.60;;;25.70;97.20;;;;;;1709285;28;20454;-71
2022/07/14 07:31:29;;;;;;;3.57;1.43;;;25.70;97.20;;;;;;1708189;28;20286;-71
2022/07/14 07:32:20;;;;;;;1.40;1.30;;;25.70;97.20;;;;;;1707304;28;20198;-71
2022/07/14 07:33:12;;;;;;;2.40;1.60;;;25.70;97.20;;;;;;1707325;28;20293;-71
2022/07/14 07:34:03;;;;;;;2.70;1.55;;;25.80;97.20;;;;;;1707248;28;20202;-71
2022/07/14 07:34:56;;;;;;;1.63;1.53;;;25.80;97.20;;;;;;1707289;28;20210;-71
2022/07/14 07:35:48;;;;;;;2.17;1.50;;;25.80;97.20;;;;;;1710488;28;20437;-72
2022/07/14 07:36:40;;;;;;;1.90;1.70;;;25.90;97.20;;;;;;1713646;28;20451;-71
2022/07/14 07:37:30;;;;;;;3.40;1.65;;;25.90;97.20;;;;;;1713862;28;20615;-71
2022/07/14 07:38:22;;;;;;;1.87;1.40;;;25.90;97.20;;;;;;1713873;28;20225;-71
2022/07/14 07:39:13;;;;;;;2.75;1.63;;;25.90;97.20;;;;;;1713818;28;20229;-71
2022/07/14 07:40:06;;;;;;;2.13;1.50;;;26.00;97.20;;;;;;1714045;28;20201;-71
2022/07/14 07:41:00;;;;;;;3.20;1.60;;;26.00;97.20;;;;;;1713890;28;20213;-71
2022/07/14 07:41:55;;;;;;;2.25;1.90;;;26.10;97.20;;;;;;1713890;28;20512;-71
2022/07/14 07:42:45;;;;;;;1.87;1.60;;;26.10;97.20;;;;;;1713707;28;20276;-71
2022/07/14 07:43:37;;;;;;;1.60;1.50;;;26.20;97.20;;;;;;1713880;28;20530;-71
2022/07/14 07:44:30;;;;;;;2.30;1.43;;;26.30;97.20;;;;;;1713902;28;20233;-71
2022/07/14 07:45:22;;;;;;;2.30;1.63;;;26.30;97.20;;;;;;1713840;28;20445;-71
2022/07/14 07:46:13;;;;;;;4.13;1.60;;;26.30;97.20;;;;;;1713799;28;20814;-71
2022/07/14 07:47:04;;;;;;;1.90;1.53;;;26.40;97.20;;;;;;1713728;28;20217;-71
2022/07/14 07:47:55;;;;;;;2.25;1.35;;;26.40;97.20;;;;;;1713752;28;20661;-71
2022/07/14 07:48:47;;;;;;;3.77;1.90;;;26.40;97.20;;;;;;1714013;28;20661;-71
2022/07/14 07:49:38;;;;;;;2.22;1.63;;;26.40;97.20;;;;;;1713868;28;20692;-71
2022/07/14 07:50:30;;;;;;;2.40;1.63;;;26.50;97.20;;;;;;1713895;28;20908;-71
2022/07/14 07:51:22;;;;;;;2.22;1.70;;;26.50;97.20;;;;;;1713888;28;20441;-71
2022/07/14 07:52:14;;;;;;;1.67;1.58;;;26.50;97.20;;;;;;1713831;28;20206;-71
2022/07/14 07:53:07;;;;;;;4.90;1.90;;;26.60;97.20;;;;;;1713872;28;20224;-71
2022/07/14 07:53:58;;;;;;;3.25;1.50;;;26.60;97.20;;;;;;1713762;28;20268;-71
2022/07/14 07:54:49;;;;;;;2.57;1.77;;;26.60;97.20;;;;;;1713853;28;20205;-71
2022/07/14 07:55:41;;;;;;;3.50;1.50;;;26.60;97.20;;;;;;1713851;28;20449;-71
2022/07/14 07:56:32;;;;;;;1.90;1.52;;;26.60;97.20;;;;;;1713578;28;20201;-71
2022/07/14 07:57:24;;;;;;;2.00;1.80;;;26.70;97.20;;;;;;1713826;28;20229;-71
2022/07/14 07:58:14;;;;;;;1.70;1.60;;;26.70;97.20;;;;;;1713424;28;20201;-71
2022/07/14 07:59:06;;;;;;;1.67;1.43;;;26.70;97.20;;;;;;1707239;28;20313;-71
2022/07/14 07:59:57;;;;;;;2.80;1.80;;;26.70;97.20;;;;;;1713745;28;20285;-71
2022/07/14 08:00:49;;;;;;;2.77;2.13;;;26.70;97.20;;;;;;1713784;28;20453;-71
2022/07/14 08:01:40;;;;;;;3.60;1.80;;;26.80;97.20;;;;;;1713826;28;20205;-71
2022/07/14 08:02:32;;;;;;;1.77;1.60;;;26.80;97.20;;;;;;1713784;28;20504;-71
2022/07/14 08:03:22;;;;;;;4.93;1.90;;;26.80;97.20;;;;;;1713807;28;20202;-71
2022/07/14 08:04:15;;;;;;;2.60;1.53;;;26.90;97.20;;;;;;1713631;28;20471;-71
2022/07/14 08:05:07;;;;;;;2.13;1.70;;;26.90;97.20;;;;;;1713910;28;20643;-71
2022/07/14 08:05:59;;;;;;;1.63;1.50;;;27.00;97.20;;;;;;1713606;28;20477;-71
2022/07/14 08:06:51;;;;;;;2.07;1.43;;;27.00;97.20;;;;;;1713435;28;20448;-70
2022/07/14 08:07:43;;;;;;;1.83;1.73;;;27.10;97.20;;;;;;1713724;28;20453;-71
2022/07/14 08:08:33;;;;;;;3.13;1.67;;;27.10;97.20;;;;;;1713727;28;20446;-71
2022/07/14 08:09:25;;;;;;;3.70;1.70;;;27.10;97.20;;;;;;1713846;28;20509;-71
2022/07/14 08:10:16;;;;;;;2.20;1.90;;;27.10;97.20;;;;;;1713735;28;20205;-71
2022/07/14 08:11:08;;;;;;;4.53;1.73;;;27.10;97.20;;;;;;1713864;28;20469;-71
2022/07/14 08:11:59;;;;;;;2.10;1.90;;;27.20;97.20;;;;;;1713776;28;20444;-71
2022/07/14 08:12:51;;;;;;;1.70;1.60;;;27.20;97.20;;;;;;1713747;28;20441;-71
2022/07/14 08:13:42;;;;;;;7.10;1.70;;;27.20;97.20;;;;;;1713869;28;20213;-71
2022/07/14 08:14:49;;;;;;;2.60;1.60;;;27.20;97.20;;;;;;1713144;28;20480;-71
2022/07/14 08:15:41;;;;;;;2.27;1.60;;;27.30;97.20;;;;;;1713822;28;20213;-71
2022/07/14 08:16:32;;;;;;;2.30;1.60;;;27.30;97.20;;;;;;1713537;28;20456;-71
2022/07/14 08:17:24;;;;;;;2.37;1.87;;;27.30;97.20;;;;;;1713822;28;20452;-71
2022/07/14 08:18:16;;;;;;;1.67;1.57;;;27.40;97.20;;;;;;1713641;28;20214;-71
2022/07/14 08:19:08;;;;;;;3.43;1.50;;;27.40;97.20;;;;;;1713650;28;20559;-71
2022/07/14 08:19:59;;;;;;;2.23;1.70;;;27.40;97.20;;;;;;1713685;28;20449;-71
2022/07/14 08:20:52;;;;;;;3.83;1.80;;;27.40;97.20;;;;;;1712929;28;20453;-71
2022/07/14 08:21:42;;;;;;;2.77;1.80;;;27.50;97.20;;;;;;1713609;28;20498;-71
2022/07/14 08:22:36;;;;;;;2.70;1.60;;;27.50;97.20;;;;;;1713481;28;20449;-71
2022/07/14 08:23:27;;;;;;;4.33;1.67;;;27.60;97.20;;;;;;1713798;28;20220;-71
2022/07/14 08:24:19;;;;;;;2.30;1.60;;;27.60;97.20;;;;;;1713756;28;20549;-71
2022/07/14 08:25:10;;;;;;;4.53;1.57;;;27.60;97.20;;;;;;1713753;28;20230;-71
2022/07/14 08:26:02;;;;;;;6.17;1.67;;;27.60;97.20;;;;;;1713758;28;20449;-71
2022/07/14 08:26:53;;;;;;;2.03;1.63;;;27.70;97.20;;;;;;1713579;28;20210;-71
2022/07/14 08:27:44;;;;;;;2.00;1.60;;;27.70;97.20;;;;;;1713700;28;20445;-71
2022/07/14 08:28:35;;;;;;;4.00;1.80;;;27.70;97.20;;;;;;1713652;28;20256;-71
2022/07/14 08:29:27;;;;;;;1.67;1.50;;;27.70;97.20;;;;;;1713840;28;20504;-71
2022/07/14 08:30:19;;;;;;;2.00;1.80;;;27.70;97.20;;;;;;1712554;28;20484;-71
2022/07/14 08:31:10;;;;;;;2.40;1.80;;;27.70;97.20;;;;;;1713680;28;20445;-71
2022/07/14 08:32:01;;;;;;;5.13;1.60;;;27.70;97.20;;;;;;1713846;28;20456;-71
2022/07/14 08:32:52;;;;;;;1.83;1.73;;;27.80;97.20;;;;;;1713145;28;20209;-71
2022/07/14 08:33:44;;;;;;;4.80;1.60;;;27.80;97.20;;;;;;1713752;28;20506;-71
2022/07/14 08:34:35;;;;;;;2.20;1.47;;;27.80;97.20;;;;;;1713671;28;20473;-71
2022/07/14 08:35:28;;;;;;;2.23;1.80;;;27.80;97.20;;;;;;1713838;28;21020;-71
2022/07/14 08:36:18;;;;;;;4.10;2.23;;;27.90;97.20;;;;;;1713114;28;20206;-71
2022/07/14 08:37:10;;;;;;;1.50;1.40;;;27.90;97.20;;;;;;1713447;28;20446;-71
2022/07/14 08:38:04;;;;;;;3.00;1.80;;;27.90;97.20;;;;;;1713606;28;20683;-71
2022/07/14 08:38:54;;;;;;;1.67;1.40;;;27.90;97.20;;;;;;1713598;28;21104;-71
2022/07/14 08:39:46;;;;;;;3.27;1.80;;;27.90;97.20;;;;;;1713873;28;20944;-71
2022/07/14 08:40:37;;;;;;;3.70;1.80;;;28.00;97.20;;;;;;1714703;28;20210;-71
2022/07/14 08:41:29;;;;;;;1.80;1.70;;;28.00;97.20;;;;;;1714967;28;20445;-71
2022/07/14 08:42:21;;;;;;;1.70;1.50;;;28.00;97.20;;;;;;1715131;28;20445;-71
2022/07/14 08:43:14;;;;;;;1.63;1.53;;;28.00;97.20;;;;;;1715004;28;20476;-71
2022/07/14 08:44:06;;;;;;;1.93;1.73;;;28.00;97.20;;;;;;1715044;28;20811;-71
2022/07/14 08:44:59;;;;;;;1.57;1.47;;;28.00;97.20;;;;;;1715019;28;20437;-71
2022/07/14 08:45:51;;;;;;;1.80;1.70;;;28.00;97.20;;;;;;1714359;28;20815;-71
2022/07/14 08:46:43;;;;;;;1.80;1.70;;;28.00;97.20;;;;;;1714706;28;20449;-71
2022/07/14 08:47:34;;;;;;;3.27;1.40;;;28.00;97.20;;;;;;1714925;28;20456;-71
2022/07/14 08:48:26;;;;;;;2.83;1.80;;;28.00;97.20;;;;;;1714622;28;20479;-71
2022/07/14 08:49:18;;;;;;;2.10;1.90;;;28.10;97.20;;;;;;1714869;28;20445;-71
2022/07/14 08:50:12;;;;;;;2.60;1.60;;;28.10;97.20;;;;;;1714588;28;20452;-71
2022/07/14 08:51:03;;;;;;;1.53;1.43;;;28.10;97.20;;;;;;1714977;28;20452;-71
2022/07/14 08:51:55;;;;;;;3.10;1.53;;;28.10;97.20;;;;;;1715049;28;20507;-71
2022/07/14 08:52:48;;;;;;;1.90;1.80;;;28.20;97.20;;;;;;1714602;28;20464;-71
2022/07/14 08:53:43;;;;;;;1.67;1.57;;;28.20;97.20;;;;;;1714949;28;20441;-71
2022/07/14 08:54:36;;;;;;;1.70;1.60;;;28.20;97.20;;;;;;1714938;28;20465;-71
2022/07/14 08:55:27;;;;;;;1.80;1.57;;;28.30;97.20;;;;;;1714991;28;20941;-71
2022/07/14 08:56:19;;;;;;;3.50;1.50;;;28.30;97.20;;;;;;1714375;28;20452;-71
2022/07/14 08:57:11;;;;;;;1.70;1.60;;;28.40;97.20;;;;;;1714660;28;20781;-71
2022/07/14 08:58:01;;;;;;;1.87;1.60;;;28.40;97.20;;;;;;1713807;28;20463;-71
2022/07/14 08:58:53;;;;;;;5.20;2.47;;;28.40;97.20;;;;;;1714908;28;20481;-71
2022/07/14 08:59:45;;;;;;;1.60;1.50;;;28.50;97.20;;;;;;1714957;28;20230;-71
2022/07/14 09:00:36;;;;;;;2.83;1.67;;;28.50;97.20;;;;;;1714503;28;20843;-71
2022/07/14 09:01:28;;;;;;;2.13;1.73;;;28.50;97.20;;;;;;1714983;28;20544;-71
2022/07/14 09:02:19;;;;;;;3.70;1.97;;;28.50;97.20;;;;;;1714481;28;20206;-71
2022/07/14 09:03:10;;;;;;;3.50;2.83;;;28.60;97.20;;;;;;1714800;28;20451;-71
2022/07/14 09:04:02;;;;;;;3.43;2.17;;;28.60;97.20;;;;;;1714748;28;20612;-71
2022/07/14 09:04:53;;;;;;;2.20;2.00;;;28.70;97.20;;;;;;1714789;28;20882;-71
2022/07/14 09:05:45;;;;;;;3.30;1.87;;;28.70;97.20;;;;;;1714597;28;20453;-71
2022/07/14 09:06:48;;;;;;;2.20;1.40;;;28.80;97.20;;;;;;1714555;28;20445;-71
2022/07/14 09:07:39;;;;;;;2.37;1.40;;;28.80;97.20;;;;;;1714409;28;20453;-71
2022/07/14 09:08:51;;;;;;;4.03;1.60;;;28.80;97.20;;;;;;1714806;28;20453;-71
2022/07/14 09:09:43;;;;;;;2.57;1.70;;;28.90;97.20;;;;;;1714869;28;20445;-71
2022/07/14 09:10:35;;;;;;;1.70;1.60;;;28.90;96.90;;;;;;1714848;28;20830;-71
2022/07/14 09:11:26;;;;;;;5.00;1.60;;;28.90;96.60;;;;;;1714571;28;20464;-71
2022/07/14 09:12:18;;;;;;;3.50;1.63;;;29.00;96.20;;;;;;1714837;28;20459;-71
2022/07/14 09:13:10;;;;;;;1.97;1.50;;;29.00;96.50;;;;;;1714580;28;20210;-71
2022/07/14 09:14:10;;;;;;;4.00;1.50;;;29.00;96.00;;;;;;1714572;28;20445;-71
2022/07/14 09:16:16;;;;;;;3.40;1.50;;;29.10;96.20;;;;;;1700631;29;20773;-72
2022/07/14 09:17:15;;;;;;;1.63;1.50;;;29.10;96.10;;;;;;1712843;28;20444;-71
2022/07/14 09:18:11;;;;;;;2.17;1.60;;;29.20;96.10;;;;;;1714624;28;20440;-71
2022/07/14 09:19:07;;;;;;;2.67;1.83;;;29.20;96.20;;;;;;1714904;28;20473;-71
2022/07/14 09:20:06;;;;;;;2.50;1.60;;;29.20;95.60;;;;;;1714333;28;20516;-71
2022/07/14 09:20:58;;;;;;;2.67;1.80;;;29.30;95.00;;;;;;1714831;28;20507;-72
2022/07/14 09:21:54;;;;;;;2.10;1.77;;;29.30;95.10;;;;;;1714382;28;20468;-71
2022/07/14 09:22:46;;;;;;;3.30;2.00;;;29.40;95.70;;;;;;1714100;28;20448;-71
2022/07/14 09:23:38;;;;;;;2.83;2.00;;;29.40;95.30;;;;;;1714290;28;20457;-71
2022/07/14 09:24:30;;;;;;;2.07;1.87;;;29.40;95.40;;;;;;1714641;28;20475;-72
2022/07/14 09:25:24;;;;;;;3.20;2.00;;;29.50;95.30;;;;;;1714290;28;20449;-71
2022/07/14 09:26:18;;;;;;;3.20;1.60;;;29.50;95.40;;;;;;1714323;28;20457;-71
2022/07/14 09:27:20;;;;;;;3.73;1.40;;;29.50;95.10;;;;;;1714275;28;20449;-71
2022/07/14 09:28:11;;;;;;;2.17;1.70;;;29.60;94.90;;;;;;1714290;28;20922;-72
2022/07/14 09:29:03;;;;;;;1.73;1.63;;;29.60;94.90;;;;;;1714294;28;20974;-71
2022/07/14 09:29:56;;;;;;;3.33;1.70;;;29.60;95.20;;;;;;1714677;28;20445;-73
2022/07/14 09:30:48;;;;;;;1.67;1.57;;;29.60;95.60;;;;;;1714193;28;20543;-71
2022/07/14 09:31:41;;;;;;;5.57;1.87;;;29.70;95.50;;;;;;1714089;28;20457;-71
2022/07/14 09:32:44;;;;;;;1.73;1.30;;;29.70;95.30;;;;;;1714654;28;20448;-71
2022/07/14 09:33:36;;;;;;;1.30;1.20;;;29.80;95.30;;;;;;1714325;28;20803;-71
2022/07/14 09:34:29;;;;;;;1.60;1.50;;;29.80;95.60;;;;;;1714279;28;20480;-71
2022/07/14 09:35:22;;;;;;;3.23;1.57;;;29.90;95.00;;;;;;1714361;28;20813;-71